createdAt,value
2023-04-20T00:00:29.999Z,980.49
2023-04-20T00:00:57.949Z,980.29
2023-04-20T00:01:28.939Z,980.29
2023-04-20T00:01:59.838Z,980.49
2023-04-20T00:02:32.311Z,980.39
2023-04-20T00:03:04.970Z,980.39
2023-04-20T00:03:34.195Z,980.49
2023-04-20T00:04:04.338Z,980.49
2023-04-20T00:04:35.658Z,980.19
2023-04-20T00:05:05.714Z,980.19
2023-04-20T00:05:36.603Z,980.49
2023-04-20T00:06:07.995Z,980.49
2023-04-20T00:06:38.650Z,980.19
2023-04-20T00:07:10.064Z,980.19
2023-04-20T00:07:42.081Z,980.29
2023-04-20T00:08:14.360Z,980.29
2023-04-20T00:08:55.743Z,980.29
2023-04-20T00:09:22.984Z,980.29
2023-04-20T00:09:45.232Z,980.19
2023-04-20T00:10:19.018Z,980.19
2023-04-20T00:10:48.972Z,980.19
2023-04-20T00:11:19.929Z,980.19
2023-04-20T00:11:50.058Z,980.29
2023-04-20T00:12:21.848Z,980.29
2023-04-20T00:12:54.626Z,980.29
2023-04-20T00:13:24.458Z,980.29
2023-04-20T00:13:55.874Z,980.29
2023-04-20T00:14:25.049Z,980.29
2023-04-20T00:14:56.404Z,980.39
2023-04-20T00:15:32.214Z,980.39
2023-04-20T00:16:04.212Z,980.19
2023-04-20T00:16:28.257Z,980.19
2023-04-20T00:16:59.952Z,980.29
2023-04-20T00:17:30.516Z,980.29
2023-04-20T00:18:04.462Z,980.09
2023-04-20T00:18:34.471Z,979.99
2023-04-20T00:19:05.835Z,979.99
2023-04-20T00:19:34.902Z,979.99
2023-04-20T00:20:06.184Z,979.99
2023-04-20T00:20:36.784Z,980.19
2023-04-20T00:21:07.413Z,980.19
2023-04-20T00:21:40.276Z,980.09
2023-04-20T00:22:09.238Z,980.09
2023-04-20T00:22:40.314Z,980.19
2023-04-20T00:23:12.321Z,980.19
2023-04-20T00:23:44.507Z,980.09
2023-04-20T00:24:14.521Z,980.09
2023-04-20T00:24:44.783Z,980.09
2023-04-20T00:25:15.620Z,980.09
2023-04-20T00:25:46.183Z,980.19
2023-04-20T00:26:17.274Z,980.19
2023-04-20T00:26:48.342Z,980.09
2023-04-20T00:27:19.337Z,980.09
2023-04-20T00:27:50.703Z,980.29
2023-04-20T00:28:22.407Z,980.29
2023-04-20T00:28:54.760Z,979.99
2023-04-20T00:29:25.759Z,979.99
2023-04-20T00:29:55.373Z,980.19
2023-04-20T00:30:27.126Z,980.19
2023-04-20T00:30:56.808Z,980.19
2023-04-20T00:31:28.008Z,980.19
2023-04-20T00:31:58.305Z,979.99
2023-04-20T00:32:29.743Z,979.99
2023-04-20T00:33:00.164Z,979.88
2023-04-20T00:33:31.482Z,979.99
2023-04-20T00:34:03.890Z,979.99
2023-04-20T00:34:34.982Z,980.09
2023-04-20T00:35:05.754Z,980.09
2023-04-20T00:35:36.542Z,979.99
2023-04-20T00:36:06.811Z,979.99
2023-04-20T00:36:37.104Z,979.99
2023-04-20T00:37:08.051Z,979.99
2023-04-20T00:37:38.902Z,980.09
2023-04-20T00:38:09.982Z,980.09
2023-04-20T00:38:40.850Z,980.09
2023-04-20T00:39:13.811Z,980.09
2023-04-20T00:39:44.748Z,979.88
2023-04-20T00:40:15.808Z,979.88
2023-04-20T00:40:46.316Z,980.09
2023-04-20T00:41:16.018Z,980.09
2023-04-20T00:41:47.085Z,980.09
2023-04-20T00:42:18.419Z,980.09
2023-04-20T00:42:49.309Z,980.09
2023-04-20T00:43:19.795Z,980.09
2023-04-20T00:43:50.871Z,979.99
2023-04-20T00:44:25.065Z,979.99
2023-04-20T00:44:54.712Z,979.99
2023-04-20T00:45:26.480Z,979.99
2023-04-20T00:45:56.016Z,980.09
2023-04-20T00:46:26.571Z,980.09
2023-04-20T00:46:57.073Z,980.09
2023-04-20T00:47:27.864Z,980.09
2023-04-20T00:47:59.044Z,980.19
2023-04-20T00:48:29.812Z,980.19
2023-04-20T00:49:00.801Z,979.99
2023-04-20T00:49:33.956Z,980.19
2023-04-20T00:50:05.842Z,980.19
2023-04-20T00:50:35.489Z,979.99
2023-04-20T00:51:06.322Z,979.99
2023-04-20T00:51:36.336Z,979.99
2023-04-20T00:52:06.782Z,979.99
2023-04-20T00:52:37.745Z,979.88
2023-04-20T00:53:12.024Z,979.88
2023-04-20T00:53:40.171Z,979.99
2023-04-20T00:54:10.931Z,979.99
2023-04-20T00:54:41.788Z,979.99
2023-04-20T00:55:15.270Z,979.99
2023-04-20T00:55:45.991Z,979.88
2023-04-20T00:56:16.462Z,979.88
2023-04-20T00:56:46.511Z,980.09
2023-04-20T00:57:17.587Z,980.09
2023-04-20T00:57:47.897Z,979.88
2023-04-20T00:58:19.769Z,979.88
2023-04-20T00:58:49.834Z,979.78
2023-04-20T00:59:21.064Z,979.78
2023-04-20T00:59:52.119Z,979.71
2023-04-20T01:00:26.077Z,979.71
2023-04-20T01:00:57.085Z,979.78
2023-04-20T01:01:26.710Z,979.78
2023-04-20T01:01:58.299Z,979.88
2023-04-20T01:02:27.443Z,979.88
2023-04-20T01:02:58.347Z,979.88
2023-04-20T01:03:29.370Z,979.88
2023-04-20T01:04:00.644Z,979.78
2023-04-20T01:05:02.459Z,979.88
2023-04-20T01:05:34.593Z,979.71
2023-04-20T01:06:06.368Z,979.71
2023-04-20T01:06:36.695Z,979.78
2023-04-20T01:07:06.548Z,979.78
2023-04-20T01:07:38.062Z,979.78
2023-04-20T01:08:08.107Z,979.78
2023-04-20T01:08:39.174Z,979.88
2023-04-20T01:09:10.498Z,979.88
2023-04-20T01:09:40.833Z,979.78
2023-04-20T01:10:12.773Z,979.78
2023-04-20T01:10:43.493Z,979.71
2023-04-20T01:11:16.134Z,979.71
2023-04-20T01:11:46.050Z,979.71
2023-04-20T01:12:16.691Z,979.71
2023-04-20T01:12:47.446Z,979.78
2023-04-20T01:13:18.139Z,979.78
2023-04-20T01:13:49.725Z,979.71
2023-04-20T01:14:50.904Z,979.71
2023-04-20T01:15:22.623Z,979.71
2023-04-20T01:15:56.559Z,979.78
2023-04-20T01:16:26.526Z,979.78
2023-04-20T01:16:57.350Z,979.71
2023-04-20T01:17:26.853Z,979.71
2023-04-20T01:17:57.658Z,979.71
2023-04-20T01:18:28.853Z,979.71
2023-04-20T01:18:59.365Z,979.71
2023-04-20T01:19:30.006Z,979.71
2023-04-20T01:20:01.102Z,979.71
2023-04-20T01:20:32.692Z,979.71
2023-04-20T01:21:03.276Z,979.71
2023-04-20T01:21:35.725Z,979.71
2023-04-20T01:22:07.087Z,979.71
2023-04-20T01:22:37.028Z,979.78
2023-04-20T01:23:08.461Z,979.78
2023-04-20T01:23:38.468Z,979.78
2023-04-20T01:24:08.864Z,979.78
2023-04-20T01:24:40.325Z,979.71
2023-04-20T01:25:11.233Z,979.71
2023-04-20T01:25:41.960Z,979.78
2023-04-20T01:26:12.878Z,979.78
2023-04-20T01:26:45.663Z,979.41
2023-04-20T01:27:15.921Z,979.41
2023-04-20T01:27:46.696Z,979.61
2023-04-20T01:28:17.405Z,979.61
2023-04-20T01:28:47.938Z,979.71
2023-04-20T01:29:19.584Z,979.71
2023-04-20T01:29:50.963Z,979.51
2023-04-20T01:30:21.876Z,979.51
2023-04-20T01:30:51.948Z,979.61
2023-04-20T01:31:23.774Z,979.61
2023-04-20T01:31:56.137Z,979.61
2023-04-20T01:32:28.315Z,979.61
2023-04-20T01:32:57.578Z,979.61
2023-04-20T01:33:27.921Z,979.61
2023-04-20T01:34:17.239Z,979.51
2023-04-20T01:34:29.251Z,979.51
2023-04-20T01:35:06.041Z,979.71
2023-04-20T01:35:31.094Z,979.71
2023-04-20T01:36:02.773Z,979.71
2023-04-20T01:36:32.849Z,979.61
2023-04-20T01:37:05.023Z,979.61
2023-04-20T01:37:37.528Z,979.51
2023-04-20T01:38:07.162Z,979.51
2023-04-20T01:38:38.072Z,979.41
2023-04-20T01:39:08.485Z,979.41
2023-04-20T01:40:11.484Z,979.41
2023-04-20T01:40:41.241Z,979.61
2023-04-20T01:41:11.969Z,979.61
2023-04-20T01:41:43.270Z,979.61
2023-04-20T01:42:15.298Z,979.61
2023-04-20T01:42:47.037Z,979.51
2023-04-20T01:43:17.499Z,979.51
2023-04-20T01:43:48.006Z,979.51
2023-04-20T01:44:19.018Z,979.51
2023-04-20T01:44:49.180Z,979.41
2023-04-20T01:45:21.740Z,979.41
2023-04-20T01:45:50.928Z,979.51
2023-04-20T01:46:22.406Z,979.51
2023-04-20T01:46:53.159Z,979.31
2023-04-20T01:47:27.055Z,979.31
2023-04-20T01:47:57.320Z,979.41
2023-04-20T01:48:28.527Z,979.41
2023-04-20T01:48:58.926Z,979.41
2023-04-20T01:49:28.605Z,979.41
2023-04-20T01:49:59.300Z,979.51
2023-04-20T01:51:01.533Z,979.51
2023-04-20T01:51:31.797Z,979.31
2023-04-20T01:52:03.311Z,979.31
2023-04-20T01:52:35.491Z,979.51
2023-04-20T01:53:07.474Z,979.51
2023-04-20T01:53:38.184Z,979.41
2023-04-20T01:54:08.561Z,979.41
2023-04-20T01:54:38.891Z,979.51
2023-04-20T01:55:09.429Z,979.51
2023-04-20T01:55:40.120Z,979.51
2023-04-20T01:56:11.572Z,979.51
2023-04-20T01:56:42.187Z,979.41
2023-04-20T01:57:13.109Z,979.41
2023-04-20T01:57:44.909Z,979.51
2023-04-20T01:58:17.857Z,979.51
2023-04-20T01:58:56.103Z,979.61
2023-04-20T01:59:18.717Z,979.61
2023-04-20T01:59:48.734Z,979.21
2023-04-20T02:00:21.172Z,979.21
2023-04-20T02:00:50.539Z,979.41
2023-04-20T02:01:21.657Z,979.41
2023-04-20T02:01:52.306Z,979.41
2023-04-20T02:02:23.395Z,979.41
2023-04-20T02:02:54.422Z,979.21
2023-04-20T02:03:27.556Z,979.21
2023-04-20T02:03:58.086Z,979.31
2023-04-20T02:04:28.582Z,979.31
2023-04-20T02:04:58.958Z,979.41
2023-04-20T02:05:30.168Z,979.41
2023-04-20T02:06:00.165Z,979.31
2023-04-20T02:06:31.473Z,979.41
2023-04-20T02:07:02.468Z,979.41
2023-04-20T02:07:33.616Z,979.41
2023-04-20T02:08:06.357Z,979.41
2023-04-20T02:08:36.856Z,979.41
2023-04-20T02:09:08.579Z,979.41
2023-04-20T02:09:39.213Z,979.41
2023-04-20T02:10:09.791Z,979.41
2023-04-20T02:10:39.899Z,979.51
2023-04-20T02:11:11.044Z,979.51
2023-04-20T02:11:41.399Z,979.51
2023-04-20T02:12:29.773Z,979.51
2023-04-20T02:12:42.903Z,979.31
2023-04-20T02:13:15.985Z,979.31
2023-04-20T02:13:47.450Z,979.41
2023-04-20T02:14:18.880Z,979.41
2023-04-20T02:14:48.347Z,979.41
2023-04-20T02:15:19.981Z,979.41
2023-04-20T02:15:49.657Z,979.10
2023-04-20T02:16:20.552Z,979.10
2023-04-20T02:16:51.407Z,979.10
2023-04-20T02:17:22.611Z,979.10
2023-04-20T02:17:54.033Z,979.10
2023-04-20T02:18:26.147Z,979.10
2023-04-20T02:18:57.422Z,979.41
2023-04-20T02:19:28.472Z,979.41
2023-04-20T02:20:18.029Z,979.31
2023-04-20T02:20:28.887Z,979.31
2023-04-20T02:21:00.376Z,979.31
2023-04-20T02:21:30.760Z,979.31
2023-04-20T02:22:01.445Z,979.41
2023-04-20T02:22:31.960Z,979.51
2023-04-20T02:23:03.612Z,979.51
2023-04-20T02:23:34.493Z,979.31
2023-04-20T02:24:08.204Z,979.31
2023-04-20T02:24:38.126Z,979.21
2023-04-20T02:25:09.362Z,979.21
2023-04-20T02:25:38.830Z,979.41
2023-04-20T02:26:09.517Z,979.41
2023-04-20T02:26:40.447Z,979.41
2023-04-20T02:27:11.345Z,979.41
2023-04-20T02:27:42.471Z,979.21
2023-04-20T02:28:13.662Z,979.21
2023-04-20T02:28:44.324Z,979.31
2023-04-20T02:29:17.558Z,979.31
2023-04-20T02:29:48.763Z,979.10
2023-04-20T02:30:20.779Z,979.10
2023-04-20T02:31:08.156Z,979.41
2023-04-20T02:31:20.103Z,979.41
2023-04-20T02:31:50.547Z,979.31
2023-04-20T02:32:22.090Z,979.31
2023-04-20T02:32:53.251Z,979.10
2023-04-20T02:33:23.945Z,979.10
2023-04-20T02:33:54.523Z,979.41
2023-04-20T02:34:27.313Z,979.41
2023-04-20T02:34:57.848Z,979.31
2023-04-20T02:35:29.626Z,979.31
2023-04-20T02:36:00.399Z,979.41
2023-04-20T02:36:29.714Z,979.41
2023-04-20T02:37:00.647Z,979.41
2023-04-20T02:37:31.539Z,979.41
2023-04-20T02:38:02.032Z,979.41
2023-04-20T02:38:33.503Z,979.41
2023-04-20T02:39:04.420Z,979.41
2023-04-20T02:39:37.257Z,979.31
2023-04-20T02:40:08.837Z,979.31
2023-04-20T02:40:38.889Z,979.41
2023-04-20T02:41:09.811Z,979.41
2023-04-20T02:41:39.869Z,979.31
2023-04-20T02:42:11.171Z,979.31
2023-04-20T02:42:41.396Z,979.51
2023-04-20T02:43:12.671Z,979.51
2023-04-20T02:44:00.699Z,979.51
2023-04-20T02:44:14.381Z,979.51
2023-04-20T02:44:46.108Z,979.31
2023-04-20T02:45:19.074Z,979.31
2023-04-20T02:45:48.858Z,979.10
2023-04-20T02:46:19.697Z,979.10
2023-04-20T02:46:50.053Z,979.31
2023-04-20T02:47:20.581Z,979.31
2023-04-20T02:47:51.474Z,979.41
2023-04-20T02:48:23.232Z,979.41
2023-04-20T02:48:54.170Z,979.21
2023-04-20T02:49:24.762Z,979.21
2023-04-20T02:49:57.103Z,979.31
2023-04-20T02:50:29.527Z,979.31
2023-04-20T02:50:59.333Z,979.51
2023-04-20T02:51:30.098Z,979.51
2023-04-20T02:52:00.321Z,979.21
2023-04-20T02:52:30.856Z,979.21
2023-04-20T02:53:33.156Z,979.31
2023-04-20T02:54:03.081Z,979.31
2023-04-20T02:54:34.045Z,979.21
2023-04-20T02:55:08.382Z,979.21
2023-04-20T02:55:38.365Z,979.41
2023-04-20T02:56:09.777Z,979.41
2023-04-20T02:56:39.536Z,979.21
2023-04-20T02:57:11.525Z,979.21
2023-04-20T02:57:40.940Z,979.31
2023-04-20T02:58:11.895Z,979.31
2023-04-20T02:58:42.342Z,979.21
2023-04-20T02:59:13.760Z,979.21
2023-04-20T02:59:45.982Z,979.41
2023-04-20T03:00:15.999Z,979.41
2023-04-20T03:00:46.049Z,979.21
2023-04-20T03:01:17.324Z,979.21
2023-04-20T03:01:50.219Z,979.31
2023-04-20T03:02:20.164Z,979.31
2023-04-20T03:02:51.214Z,979.31
2023-04-20T03:03:22.046Z,979.31
2023-04-20T03:03:53.772Z,979.21
2023-04-20T03:04:24.113Z,979.21
2023-04-20T03:05:27.024Z,979.21
2023-04-20T03:05:58.761Z,979.21
2023-04-20T03:06:29.600Z,979.21
2023-04-20T03:06:59.799Z,979.21
2023-04-20T03:07:30.130Z,979.21
2023-04-20T03:08:00.936Z,979.31
2023-04-20T03:08:31.899Z,979.21
2023-04-20T03:09:03.375Z,979.21
2023-04-20T03:09:33.707Z,979.21
2023-04-20T03:10:04.793Z,979.21
2023-04-20T03:10:35.548Z,979.21
2023-04-20T03:11:07.842Z,979.21
2023-04-20T03:11:39.267Z,979.21
2023-04-20T03:12:09.438Z,979.21
2023-04-20T03:12:40.761Z,979.21
2023-04-20T03:13:10.771Z,979.21
2023-04-20T03:13:42.333Z,979.31
2023-04-20T03:14:12.551Z,979.31
2023-04-20T03:14:43.317Z,979.31
2023-04-20T03:15:15.267Z,979.31
2023-04-20T03:15:45.355Z,979.31
2023-04-20T03:16:18.131Z,979.31
2023-04-20T03:16:49.467Z,979.41
2023-04-20T03:17:20.161Z,979.41
2023-04-20T03:17:50.606Z,979.21
2023-04-20T03:18:21.035Z,979.21
2023-04-20T03:18:52.094Z,979.21
2023-04-20T03:19:22.648Z,979.21
2023-04-20T03:19:53.406Z,979.31
2023-04-20T03:20:25.194Z,979.31
2023-04-20T03:20:55.721Z,979.21
2023-04-20T03:21:27.858Z,979.21
2023-04-20T03:22:00.064Z,979.10
2023-04-20T03:22:30.004Z,979.10
2023-04-20T03:23:00.967Z,979.21
2023-04-20T03:23:31.212Z,979.31
2023-04-20T03:24:02.030Z,979.31
2023-04-20T03:24:33.145Z,979.31
2023-04-20T03:25:04.592Z,979.31
2023-04-20T03:25:35.159Z,979.41
2023-04-20T03:26:05.590Z,979.41
2023-04-20T03:26:36.734Z,979.31
2023-04-20T03:27:10.153Z,979.31
2023-04-20T03:27:40.655Z,979.51
2023-04-20T03:28:11.159Z,979.51
2023-04-20T03:28:41.577Z,979.21
2023-04-20T03:29:12.935Z,979.21
2023-04-20T03:29:43.812Z,979.51
2023-04-20T03:30:15.379Z,979.51
2023-04-20T03:30:45.490Z,979.41
2023-04-20T03:31:15.561Z,979.41
2023-04-20T03:31:49.354Z,979.21
2023-04-20T03:32:19.808Z,979.21
2023-04-20T03:33:05.961Z,979.21
2023-04-20T03:33:21.181Z,979.21
2023-04-20T03:33:51.310Z,979.41
2023-04-20T03:34:22.184Z,979.41
2023-04-20T03:34:54.282Z,979.31
2023-04-20T03:35:23.495Z,979.31
2023-04-20T03:35:55.430Z,979.31
2023-04-20T03:36:25.687Z,979.31
2023-04-20T03:36:58.169Z,979.41
2023-04-20T03:37:29.662Z,979.41
2023-04-20T03:38:10.738Z,979.31
2023-04-20T03:38:30.922Z,979.31
2023-04-20T03:39:02.121Z,979.21
2023-04-20T03:39:32.695Z,979.31
2023-04-20T03:40:03.086Z,979.31
2023-04-20T03:40:40.250Z,979.21
2023-04-20T03:41:04.624Z,979.21
2023-04-20T03:41:35.433Z,979.10
2023-04-20T03:42:23.673Z,979.10
2023-04-20T03:42:39.538Z,979.21
2023-04-20T03:43:11.041Z,979.21
2023-04-20T03:43:40.632Z,979.31
2023-04-20T03:44:11.588Z,979.31
2023-04-20T03:44:42.093Z,979.21
2023-04-20T03:45:13.825Z,979.21
2023-04-20T03:45:44.054Z,979.31
2023-04-20T03:46:32.575Z,979.41
2023-04-20T03:47:02.932Z,979.41
2023-04-20T03:47:17.341Z,979.41
2023-04-20T03:47:50.211Z,979.41
2023-04-20T03:48:18.234Z,979.41
2023-04-20T03:48:51.224Z,979.41
2023-04-20T03:49:22.109Z,979.41
2023-04-20T03:49:52.578Z,979.31
2023-04-20T03:50:23.579Z,979.31
2023-04-20T03:51:11.703Z,979.31
2023-04-20T03:51:24.357Z,979.31
2023-04-20T03:51:55.521Z,979.31
2023-04-20T03:52:26.830Z,979.31
2023-04-20T03:52:59.028Z,979.31
2023-04-20T03:53:30.167Z,979.31
2023-04-20T03:54:01.059Z,979.21
2023-04-20T03:54:32.034Z,979.21
2023-04-20T03:55:02.075Z,979.21
2023-04-20T03:55:32.841Z,979.31
2023-04-20T03:56:03.284Z,979.31
2023-04-20T03:56:34.665Z,979.31
2023-04-20T03:57:07.226Z,979.31
2023-04-20T03:57:36.503Z,979.21
2023-04-20T03:58:09.975Z,979.21
2023-04-20T03:58:40.506Z,979.21
2023-04-20T03:59:12.262Z,979.21
2023-04-20T04:00:01.188Z,979.41
2023-04-20T04:00:12.547Z,979.41
2023-04-20T04:01:13.870Z,979.21
2023-04-20T04:01:46.273Z,979.31
2023-04-20T04:02:16.373Z,979.31
2023-04-20T04:02:46.840Z,979.41
2023-04-20T04:03:18.834Z,979.41
2023-04-20T04:03:57.329Z,979.21
2023-04-20T04:04:20.141Z,979.21
2023-04-20T04:04:52.374Z,979.31
2023-04-20T04:05:23.825Z,979.31
2023-04-20T04:05:55.604Z,979.21
2023-04-20T04:06:24.885Z,979.21
2023-04-20T04:07:02.190Z,979.31
2023-04-20T04:07:26.075Z,979.31
2023-04-20T04:07:57.106Z,979.31
2023-04-20T04:08:45.621Z,979.31
2023-04-20T04:08:58.776Z,979.31
2023-04-20T04:09:40.134Z,979.41
2023-04-20T04:10:02.045Z,979.41
2023-04-20T04:10:33.540Z,979.21
2023-04-20T04:11:04.997Z,979.21
2023-04-20T04:12:08.194Z,979.31
2023-04-20T04:12:36.456Z,979.31
2023-04-20T04:13:07.811Z,979.31
2023-04-20T04:13:56.227Z,979.41
2023-04-20T04:14:29.430Z,979.41
2023-04-20T04:14:41.038Z,979.41
2023-04-20T04:15:44.179Z,979.41
2023-04-20T04:16:14.056Z,979.41
2023-04-20T04:16:50.717Z,979.10
2023-04-20T04:17:15.474Z,979.10
2023-04-20T04:17:47.001Z,979.31
2023-04-20T04:18:17.227Z,979.31
2023-04-20T04:18:48.083Z,979.31
2023-04-20T04:19:21.718Z,979.31
2023-04-20T04:19:53.329Z,979.51
2023-04-20T04:20:33.463Z,979.51
2023-04-20T04:20:53.223Z,979.21
2023-04-20T04:21:28.060Z,979.21
2023-04-20T04:21:54.862Z,979.31
2023-04-20T04:22:30.607Z,979.31
2023-04-20T04:22:57.832Z,979.41
2023-04-20T04:23:26.629Z,979.41
2023-04-20T04:23:58.140Z,979.31
2023-04-20T04:24:29.120Z,979.31
2023-04-20T04:25:02.950Z,979.31
2023-04-20T04:25:33.511Z,979.31
2023-04-20T04:26:04.018Z,979.31
2023-04-20T04:26:36.117Z,979.31
2023-04-20T04:27:05.682Z,979.31
2023-04-20T04:27:36.916Z,979.31
2023-04-20T04:28:07.049Z,979.31
2023-04-20T04:28:48.017Z,979.41
2023-04-20T04:29:11.536Z,979.41
2023-04-20T04:29:46.642Z,979.21
2023-04-20T04:30:21.445Z,979.21
2023-04-20T04:30:57.257Z,979.21
2023-04-20T04:31:13.747Z,979.21
2023-04-20T04:31:43.760Z,979.31
2023-04-20T04:32:31.190Z,979.31
2023-04-20T04:32:51.507Z,979.31
2023-04-20T04:33:17.807Z,979.31
2023-04-20T04:33:48.460Z,979.31
2023-04-20T04:34:19.268Z,979.31
2023-04-20T04:34:54.620Z,979.31
2023-04-20T04:35:21.043Z,979.31
2023-04-20T04:36:00.955Z,979.31
2023-04-20T04:36:31.049Z,979.31
2023-04-20T04:36:59.317Z,979.31
2023-04-20T04:37:25.453Z,979.31
2023-04-20T04:37:55.489Z,979.31
2023-04-20T04:38:28.555Z,979.31
2023-04-20T04:39:01.143Z,979.31
2023-04-20T04:39:33.368Z,979.31
2023-04-20T04:40:51.162Z,979.51
2023-04-20T04:41:05.660Z,979.31
2023-04-20T04:41:38.911Z,979.51
2023-04-20T04:42:09.227Z,979.51
2023-04-20T04:42:49.073Z,979.41
2023-04-20T04:43:10.625Z,979.41
2023-04-20T04:43:36.640Z,979.41
2023-04-20T04:44:06.985Z,979.41
2023-04-20T04:44:40.026Z,979.31
2023-04-20T04:45:13.748Z,979.31
2023-04-20T04:45:41.889Z,979.41
2023-04-20T04:46:13.938Z,979.41
2023-04-20T04:46:44.333Z,979.51
2023-04-20T04:47:21.346Z,979.51
2023-04-20T04:47:43.996Z,979.41
2023-04-20T04:48:15.903Z,979.41
2023-04-20T04:48:47.294Z,979.41
2023-04-20T04:49:17.798Z,979.41
2023-04-20T04:49:48.850Z,979.51
2023-04-20T04:50:20.068Z,979.51
2023-04-20T04:50:50.354Z,979.61
2023-04-20T04:51:21.821Z,979.61
2023-04-20T04:51:52.913Z,979.41
2023-04-20T04:52:23.236Z,979.41
2023-04-20T04:52:53.753Z,979.51
2023-04-20T04:53:27.255Z,979.51
2023-04-20T04:53:56.704Z,979.51
2023-04-20T04:54:26.890Z,979.51
2023-04-20T04:55:00.227Z,979.31
2023-04-20T04:55:29.895Z,979.31
2023-04-20T04:56:02.912Z,979.41
2023-04-20T04:56:33.141Z,979.51
2023-04-20T04:57:03.154Z,979.51
2023-04-20T04:57:34.052Z,979.31
2023-04-20T04:58:34.745Z,979.41
2023-04-20T04:59:06.082Z,979.41
2023-04-20T04:59:37.043Z,979.41
2023-04-20T05:02:31.519Z,979.41
2023-04-20T05:02:42.738Z,979.41
2023-04-20T05:03:13.924Z,979.41
2023-04-20T05:04:20.858Z,979.51
2023-04-20T05:04:52.795Z,979.41
2023-04-20T05:05:35.594Z,979.41
2023-04-20T05:06:00.043Z,979.61
2023-04-20T05:06:42.577Z,979.61
2023-04-20T05:17:21.740Z,979.41
2023-04-20T05:17:42.371Z,979.51
2023-04-20T05:18:13.079Z,979.51
2023-04-20T05:18:43.525Z,979.71
2023-04-20T05:19:15.175Z,979.71
2023-04-20T05:19:46.145Z,979.61
2023-04-20T05:20:31.774Z,979.61
2023-04-20T05:20:49.420Z,979.61
2023-04-20T05:21:26.198Z,979.61
2023-04-20T05:21:57.360Z,979.71
2023-04-20T05:22:21.170Z,979.71
2023-04-20T05:22:54.169Z,979.51
2023-04-20T05:23:23.523Z,979.51
2023-04-20T05:23:54.353Z,979.78
2023-04-20T05:24:31.095Z,979.78
2023-04-20T05:25:33.224Z,979.78
2023-04-20T05:26:00.854Z,979.61
2023-04-20T05:26:30.441Z,979.61
2023-04-20T05:27:01.641Z,979.61
2023-04-20T05:27:40.566Z,979.61
2023-04-20T05:28:03.495Z,979.61
2023-04-20T05:28:32.826Z,979.51
2023-04-20T05:29:04.068Z,979.51
2023-04-20T05:29:35.084Z,979.71
2023-04-20T05:30:27.254Z,979.71
2023-04-20T05:31:13.068Z,979.78
2023-04-20T05:31:40.460Z,979.61
2023-04-20T05:32:20.120Z,979.61
2023-04-20T05:32:44.188Z,979.71
2023-04-20T05:33:17.592Z,979.71
2023-04-20T05:34:18.685Z,979.51
2023-04-20T05:34:45.148Z,979.71
2023-04-20T05:35:59.732Z,979.71
2023-04-20T05:37:12.053Z,979.61
2023-04-20T05:37:21.881Z,979.61
2023-04-20T05:37:51.685Z,979.51
2023-04-20T05:38:22.944Z,979.51
2023-04-20T05:38:53.529Z,979.78
2023-04-20T05:39:24.321Z,979.78
2023-04-20T05:39:55.754Z,979.61
2023-04-20T05:40:26.705Z,979.61
2023-04-20T05:40:58.954Z,979.88
2023-04-20T05:41:30.404Z,979.88
2023-04-20T05:42:01.274Z,979.88
2023-04-20T05:42:31.664Z,979.88
2023-04-20T05:43:02.494Z,979.88
2023-04-20T05:43:32.883Z,979.61
2023-04-20T05:44:03.353Z,979.61
2023-04-20T05:44:34.974Z,979.61
2023-04-20T05:45:07.496Z,979.61
2023-04-20T05:45:36.946Z,979.51
2023-04-20T05:46:07.982Z,979.51
2023-04-20T05:46:41.548Z,979.88
2023-04-20T05:47:11.173Z,979.88
2023-04-20T05:47:41.595Z,979.71
2023-04-20T05:48:12.643Z,979.71
2023-04-20T05:48:44.135Z,979.78
2023-04-20T05:49:14.012Z,979.78
2023-04-20T05:49:44.062Z,979.71
2023-04-20T05:50:15.989Z,979.71
2023-04-20T05:50:45.920Z,979.71
2023-04-20T05:51:17.610Z,979.71
2023-04-20T05:51:49.856Z,979.88
2023-04-20T05:52:21.875Z,979.88
2023-04-20T05:52:52.096Z,979.71
2023-04-20T05:53:22.337Z,979.71
2023-04-20T05:53:52.523Z,979.78
2023-04-20T05:54:23.653Z,979.78
2023-04-20T05:54:54.029Z,979.99
2023-04-20T05:55:25.734Z,979.99
2023-04-20T05:55:55.991Z,979.88
2023-04-20T05:56:28.492Z,979.88
2023-04-20T05:57:00.522Z,979.88
2023-04-20T05:57:31.350Z,979.88
2023-04-20T05:58:02.216Z,979.71
2023-04-20T05:58:32.198Z,979.71
2023-04-20T05:59:03.021Z,979.71
2023-04-20T05:59:34.056Z,979.71
2023-04-20T06:00:07.068Z,979.71
2023-04-20T06:00:35.249Z,979.78
2023-04-20T06:01:06.053Z,979.78
2023-04-20T06:01:55.340Z,979.88
2023-04-20T06:02:08.205Z,979.88
2023-04-20T06:02:38.697Z,979.78
2023-04-20T06:03:11.766Z,979.78
2023-04-20T06:04:07.277Z,979.78
2023-04-20T06:04:13.109Z,979.78
2023-04-20T06:05:02.279Z,979.99
2023-04-20T06:05:14.743Z,979.99
2023-04-20T06:05:45.463Z,979.71
2023-04-20T06:06:16.862Z,979.71
2023-04-20T06:07:05.741Z,979.99
2023-04-20T06:07:20.018Z,979.99
2023-04-20T06:07:54.870Z,979.88
2023-04-20T06:08:22.415Z,979.88
2023-04-20T06:08:52.794Z,979.71
2023-04-20T06:09:23.479Z,979.71
2023-04-20T06:09:56.390Z,979.78
2023-04-20T06:10:25.654Z,979.78
2023-04-20T06:10:55.293Z,979.99
2023-04-20T06:11:26.750Z,979.99
2023-04-20T06:11:57.990Z,979.88
2023-04-20T06:12:31.021Z,979.88
2023-04-20T06:13:01.372Z,979.88
2023-04-20T06:13:32.626Z,979.88
2023-04-20T06:14:02.779Z,979.78
2023-04-20T06:14:33.374Z,979.71
2023-04-20T06:15:04.376Z,979.71
2023-04-20T06:15:34.093Z,979.88
2023-04-20T06:16:06.260Z,979.88
2023-04-20T06:16:36.162Z,979.88
2023-04-20T06:17:11.902Z,979.88
2023-04-20T06:17:39.337Z,979.99
2023-04-20T06:18:12.658Z,979.99
2023-04-20T06:18:41.980Z,979.99
2023-04-20T06:19:12.603Z,979.99
2023-04-20T06:19:43.507Z,980.19
2023-04-20T06:20:14.495Z,980.19
2023-04-20T06:20:44.513Z,980.09
2023-04-20T06:21:15.660Z,980.09
2023-04-20T06:21:46.254Z,979.99
2023-04-20T06:22:18.379Z,979.99
2023-04-20T06:22:49.623Z,979.99
2023-04-20T06:23:36.816Z,979.88
2023-04-20T06:23:52.213Z,979.88
2023-04-20T06:24:22.579Z,979.88
2023-04-20T06:24:53.210Z,979.99
2023-04-20T06:25:24.243Z,979.99
2023-04-20T06:25:54.739Z,979.99
2023-04-20T06:26:26.500Z,979.99
2023-04-20T06:27:01.152Z,979.88
2023-04-20T06:27:28.292Z,979.88
2023-04-20T06:28:01.282Z,979.99
2023-04-20T06:28:31.840Z,979.99
2023-04-20T06:29:01.903Z,979.88
2023-04-20T06:29:32.474Z,979.88
2023-04-20T06:30:34.987Z,979.88
2023-04-20T06:31:05.003Z,979.88
2023-04-20T06:31:35.646Z,980.09
2023-04-20T06:32:24.936Z,980.09
2023-04-20T06:32:37.227Z,979.99
2023-04-20T06:33:12.366Z,979.99
2023-04-20T06:33:42.107Z,979.88
2023-04-20T06:34:13.091Z,979.88
2023-04-20T06:34:43.394Z,979.99
2023-04-20T06:35:13.604Z,979.99
2023-04-20T06:35:44.317Z,979.99
2023-04-20T06:36:14.930Z,979.99
2023-04-20T06:36:45.845Z,979.88
2023-04-20T06:37:17.685Z,979.88
2023-04-20T06:37:47.399Z,979.88
2023-04-20T06:38:19.575Z,979.88
2023-04-20T06:38:51.425Z,980.09
2023-04-20T06:39:23.105Z,980.09
2023-04-20T06:39:52.390Z,979.99
2023-04-20T06:40:23.490Z,979.99
2023-04-20T06:40:54.394Z,979.99
2023-04-20T06:41:24.715Z,979.99
2023-04-20T06:41:56.352Z,979.99
2023-04-20T06:42:26.704Z,979.99
2023-04-20T06:42:57.980Z,979.88
2023-04-20T06:43:28.108Z,979.88
2023-04-20T06:44:01.593Z,979.99
2023-04-20T06:44:32.823Z,979.99
2023-04-20T06:45:03.464Z,980.09
2023-04-20T06:45:34.127Z,980.09
2023-04-20T06:46:34.644Z,980.29
2023-04-20T06:47:05.826Z,980.29
2023-04-20T06:47:36.596Z,980.09
2023-04-20T06:48:17.129Z,980.09
2023-04-20T06:48:38.893Z,980.09
2023-04-20T06:49:12.081Z,980.09